This is the latest recevied weather packets stored in our database for station/object dl9mfl-6. If no packets are shown the sender has not sent any weather packets the latest 10 day(s).
| Time | Temp. | Humidity | Pressure | Rain* | Wind** | Luminosity | Snow |
|---|---|---|---|---|---|---|---|
| 1777736916 | 17.78° C | 49% | 1020.4 hPa | 0 mm | - | - | - |
| 1777736911 | 17.22° C | 50% | 1020.3 hPa | 0 mm | - | - | - |
| 1777736903 | 17.22° C | 50% | 1020.5 hPa | 0 mm | - | - | - |
| 1777736899 | 17.22° C | 49% | 1020.4 hPa | 0 mm | - | - | - |
| 1777736895 | 17.22° C | 49% | 1020.5 hPa | 0 mm | - | - | - |
| 1777736891 | 17.22° C | 50% | 1020.5 hPa | 0 mm | - | - | - |
| 1777736887 | 17.22° C | 50% | 1020.5 hPa | 0 mm | - | - | - |
| 1777736883 | 25° C | 30% | 1015.8 hPa | 0 mm | - | - | - |
| 1777736875 | 17.22° C | 50% | 1020.4 hPa | 0 mm | - | - | - |
| 1777736871 | 17.22° C | 49% | 1020.4 hPa | 0 mm | - | - | - |
| 1777736867 | 17.22° C | 49% | 1020.4 hPa | 0 mm | - | - | - |
| 1777736863 | 17.22° C | 48% | 1020.5 hPa | 0 mm | - | - | - |
| 1777736859 | 17.22° C | 49% | 1020.5 hPa | 0 mm | - | - | - |
| 1777736850 | 17.22° C | 49% | 1020.4 hPa | 0 mm | - | - | - |
| 1777736846 | 17.22° C | 49% | 1020.5 hPa | 0 mm | - | - | - |
| 1777736842 | 17.22° C | 49% | 1020.5 hPa | 0 mm | - | - | - |
| 1777736838 | 17.22° C | 49% | 1020.5 hPa | 0 mm | - | - | - |
| 1777736834 | 16.67° C | 49% | 1020.5 hPa | 0 mm | - | - | - |
| 1777736830 | 25° C | 30% | 1015.8 hPa | 0 mm | - | - | - |
| 1777736826 | 25° C | 30% | 1015.8 hPa | 0 mm | - | - | - |
| 1777736822 | 25.56° C | 30% | 1015.8 hPa | 0 mm | - | - | - |
| 1777736683 | 16.67° C | 49% | 1020.5 hPa | 0 mm | - | - | - |
| 1777736679 | 16.67° C | 49% | 1020.5 hPa | 0 mm | - | - | - |
| 1777736675 | 16.67° C | 50% | 1020.4 hPa | 0 mm | - | - | - |
| 1777736671 | 16.67° C | 50% | 1020.5 hPa | 0 mm | - | - | - |
* Rain latest hour (hover to see other rain measurements)
** Current wind speed in m/s (hover to see current wind gust speed)